createdAt,value
2022-11-10T00:01:10.800Z,26.88
2022-11-10T00:03:39.327Z,27.75
2022-11-10T00:06:08.087Z,26.30
2022-11-10T00:08:35.424Z,28.10
2022-11-10T00:11:07.235Z,26.35
2022-11-10T00:13:57.901Z,26.70
2022-11-10T00:16:43.057Z,27.40
2022-11-10T00:19:09.964Z,26.35
2022-11-10T00:21:37.778Z,26.92
2022-11-10T00:24:05.230Z,26.38
2022-11-10T00:26:32.120Z,26.52
2022-11-10T00:28:58.897Z,25.83
2022-11-10T00:31:28.480Z,26.27
2022-11-10T00:33:55.722Z,27.48
2022-11-10T00:36:22.489Z,27.85
2022-11-10T00:38:51.388Z,26.27
2022-11-10T00:41:18.199Z,26.45
2022-11-10T00:43:44.932Z,25.52
2022-11-10T00:46:11.850Z,26.30
2022-11-10T00:48:38.639Z,25.90
2022-11-10T00:51:05.730Z,26.63
2022-11-10T00:53:32.561Z,24.60
2022-11-10T00:55:59.355Z,26.23
2022-11-10T00:58:26.148Z,28.58
2022-11-10T01:01:02.275Z,27.30
2022-11-10T01:03:29.339Z,26.77
2022-11-10T01:05:56.108Z,25.02
2022-11-10T01:08:23.165Z,25.67
2022-11-10T01:10:50.085Z,24.42
2022-11-10T01:13:16.833Z,25.50
2022-11-10T01:15:43.705Z,25.05
2022-11-10T01:18:10.545Z,25.70
2022-11-10T01:20:37.542Z,25.30
2022-11-10T01:23:04.531Z,25.55
2022-11-10T01:25:31.308Z,24.13
2022-11-10T01:27:58.064Z,25.73
2022-11-10T01:30:24.837Z,24.38
2022-11-10T01:32:51.670Z,25.45
2022-11-10T01:35:18.428Z,25.40
2022-11-10T01:37:45.540Z,24.02
2022-11-10T01:40:12.737Z,23.85
2022-11-10T01:42:54.282Z,23.20
2022-11-10T01:45:24.119Z,23.02
2022-11-10T01:47:56.155Z,24.17
2022-11-10T01:50:27.214Z,25.02
2022-11-10T01:52:57.271Z,23.10
2022-11-10T01:55:25.258Z,23.38
2022-11-10T01:57:52.020Z,24.52
2022-11-10T02:00:19.998Z,24.13
2022-11-10T02:02:56.079Z,25.00
2022-11-10T02:05:23.592Z,23.85
2022-11-10T02:07:51.808Z,23.70
2022-11-10T02:10:20.542Z,24.52
2022-11-10T02:12:49.571Z,24.15
2022-11-10T02:15:18.282Z,22.80
2022-11-10T02:17:47.798Z,23.55
2022-11-10T02:20:18.339Z,24.98
2022-11-10T02:22:45.148Z,23.45
2022-11-10T02:25:16.701Z,24.13
2022-11-10T02:27:43.528Z,23.92
2022-11-10T02:30:11.149Z,24.05
2022-11-10T02:32:37.935Z,23.02
2022-11-10T02:35:05.205Z,25.35
2022-11-10T02:37:32.300Z,24.63
2022-11-10T02:39:59.095Z,24.10
2022-11-10T02:42:26.111Z,24.80
2022-11-10T02:44:52.833Z,22.92
2022-11-10T02:47:19.762Z,24.20
2022-11-10T02:49:46.558Z,23.90
2022-11-10T02:52:13.292Z,23.60
2022-11-10T02:54:40.079Z,25.02
2022-11-10T02:57:06.844Z,24.30
2022-11-10T02:59:33.582Z,23.75
2022-11-10T03:02:00.320Z,22.77
2022-11-10T03:04:27.125Z,21.65
2022-11-10T03:06:53.894Z,22.10
2022-11-10T03:09:20.898Z,21.13
2022-11-10T03:11:47.722Z,21.23
2022-11-10T03:14:14.497Z,22.27
2022-11-10T03:16:41.259Z,20.48
2022-11-10T03:19:08.075Z,21.48
2022-11-10T03:21:34.819Z,21.50
2022-11-10T03:24:01.560Z,19.45
2022-11-10T03:26:28.359Z,21.20
2022-11-10T03:28:55.102Z,20.05
2022-11-10T03:31:21.842Z,20.40
2022-11-10T03:33:48.632Z,20.52
2022-11-10T03:36:15.471Z,22.80
2022-11-10T03:38:42.284Z,21.90
2022-11-10T03:41:24.360Z,21.05
2022-11-10T03:43:51.210Z,20.63
2022-11-10T03:46:18.677Z,21.70
2022-11-10T03:48:51.846Z,21.55
2022-11-10T03:51:20.377Z,21.48
2022-11-10T03:53:47.182Z,21.05
2022-11-10T03:56:14.059Z,20.80
2022-11-10T03:58:41.690Z,22.15
2022-11-10T04:01:08.665Z,20.77
2022-11-10T04:03:35.452Z,21.13
2022-11-10T04:06:21.062Z,21.35
2022-11-10T04:09:00.077Z,21.27
2022-11-10T04:11:49.217Z,20.90
2022-11-10T04:14:35.217Z,21.75
2022-11-10T04:17:02.860Z,22.13
2022-11-10T04:19:30.163Z,21.00
2022-11-10T04:21:57.302Z,20.30
2022-11-10T04:24:24.093Z,21.23
2022-11-10T04:26:51.063Z,21.42
2022-11-10T04:29:19.547Z,20.75
2022-11-10T04:31:46.959Z,21.60
2022-11-10T04:34:15.396Z,19.92
2022-11-10T04:36:44.254Z,20.58
2022-11-10T04:39:11.145Z,19.35
2022-11-10T04:41:38.416Z,19.45
2022-11-10T04:44:05.424Z,19.40
2022-11-10T04:46:38.014Z,20.90
2022-11-10T04:49:06.562Z,21.52
2022-11-10T04:51:38.370Z,21.08
2022-11-10T04:54:06.898Z,20.90
2022-11-10T04:56:34.908Z,20.65
2022-11-10T04:59:01.965Z,19.90
2022-11-10T05:01:28.843Z,20.00
2022-11-10T05:03:56.065Z,20.40
2022-11-10T05:06:23.144Z,20.50
2022-11-10T05:08:50.590Z,20.02
2022-11-10T05:11:17.649Z,21.52
2022-11-10T05:13:45.368Z,20.20
2022-11-10T05:16:12.954Z,20.60
2022-11-10T05:18:40.375Z,19.85
2022-11-10T05:21:07.274Z,20.10
2022-11-10T05:23:40.275Z,20.48
2022-11-10T05:26:10.447Z,21.17
2022-11-10T05:28:38.573Z,21.10
2022-11-10T05:31:05.861Z,20.00
2022-11-10T05:33:32.975Z,19.60
2022-11-10T05:35:59.759Z,21.17
2022-11-10T05:38:26.556Z,20.42
2022-11-10T05:40:53.748Z,20.63
2022-11-10T05:43:20.867Z,20.55
2022-11-10T05:45:48.007Z,20.67
2022-11-10T05:48:15.064Z,21.52
2022-11-10T05:50:43.258Z,19.90
2022-11-10T05:53:10.379Z,22.05
2022-11-10T05:55:37.445Z,20.23
2022-11-10T05:58:04.407Z,20.95
2022-11-10T06:00:32.638Z,19.83
2022-11-10T06:03:10.384Z,20.48
2022-11-10T06:05:37.234Z,19.88
2022-11-10T06:08:05.283Z,19.08
2022-11-10T06:10:33.815Z,20.52
2022-11-10T06:13:00.829Z,20.90
2022-11-10T06:15:28.493Z,21.08
2022-11-10T06:17:55.616Z,20.02
2022-11-10T06:20:23.390Z,21.05
2022-11-10T06:23:01.050Z,19.70
2022-11-10T06:25:33.171Z,19.92
2022-11-10T06:28:01.810Z,19.33
2022-11-10T06:30:29.897Z,20.40
2022-11-10T06:32:56.891Z,21.60
2022-11-10T06:35:24.843Z,20.05
2022-11-10T06:38:12.897Z,20.73
2022-11-10T06:40:39.763Z,19.08
2022-11-10T06:43:06.625Z,19.33
2022-11-10T06:45:33.397Z,21.38
2022-11-10T06:48:20.586Z,19.77
2022-11-10T06:50:47.306Z,20.23
2022-11-10T06:53:14.032Z,20.65
2022-11-10T06:55:40.795Z,19.60
2022-11-10T06:58:07.524Z,19.73
2022-11-10T07:00:34.420Z,20.33
2022-11-10T07:03:03.033Z,21.27
2022-11-10T07:05:30.188Z,22.10
2022-11-10T07:08:01.404Z,20.52
2022-11-10T07:10:28.199Z,19.58
2022-11-10T07:12:59.258Z,21.27
2022-11-10T07:15:26.447Z,20.83
2022-11-10T07:17:53.232Z,22.50
2022-11-10T07:20:20.309Z,22.08
2022-11-10T07:22:47.117Z,22.33
2022-11-10T07:25:14.026Z,20.70
2022-11-10T07:27:40.762Z,21.75
2022-11-10T07:30:08.056Z,20.52
2022-11-10T07:32:34.943Z,20.35
2022-11-10T07:35:01.678Z,20.88
2022-11-10T07:37:28.514Z,21.63
2022-11-10T07:39:55.301Z,20.48
2022-11-10T07:42:22.084Z,19.95
2022-11-10T07:44:48.818Z,19.75
2022-11-10T07:47:15.685Z,19.27
2022-11-10T07:49:42.425Z,20.02
2022-11-10T07:52:09.185Z,20.05
2022-11-10T07:54:35.965Z,21.13
2022-11-10T07:57:02.745Z,20.92
2022-11-10T07:59:29.488Z,20.85
2022-11-10T08:01:56.351Z,20.08
2022-11-10T08:04:23.078Z,19.08
2022-11-10T08:06:49.878Z,19.85
2022-11-10T08:09:16.769Z,18.70
2022-11-10T08:11:43.553Z,19.85
2022-11-10T08:14:10.393Z,20.45
2022-11-10T08:16:37.153Z,19.42
2022-11-10T08:19:03.891Z,20.35
2022-11-10T08:21:31.555Z,19.90
2022-11-10T08:23:58.378Z,19.50
2022-11-10T08:26:25.152Z,19.92
2022-11-10T08:28:51.881Z,19.13
2022-11-10T08:31:18.674Z,19.50
2022-11-10T08:33:45.432Z,19.75
2022-11-10T08:36:12.292Z,20.50
2022-11-10T08:38:39.120Z,19.35
2022-11-10T08:41:05.967Z,18.48
2022-11-10T08:43:32.734Z,19.67
2022-11-10T08:45:59.646Z,19.40
2022-11-10T08:48:26.383Z,19.73
2022-11-10T08:50:53.767Z,20.55
2022-11-10T08:53:23.965Z,20.05
2022-11-10T08:55:53.159Z,19.77
2022-11-10T08:58:21.671Z,19.75
2022-11-10T09:00:49.055Z,21.35
2022-11-10T09:03:17.187Z,20.10
2022-11-10T09:05:44.018Z,21.15
2022-11-10T09:08:10.901Z,20.73
2022-11-10T09:10:43.190Z,20.67
2022-11-10T09:13:11.864Z,21.35
2022-11-10T09:15:39.081Z,19.80
2022-11-10T09:18:07.212Z,23.00
2022-11-10T09:20:36.024Z,22.67
2022-11-10T09:23:11.285Z,23.33
2022-11-10T09:25:38.660Z,23.15
2022-11-10T09:28:05.814Z,22.50
2022-11-10T09:30:32.910Z,21.80
2022-11-10T09:33:00.869Z,21.67
2022-11-10T09:35:28.072Z,21.75
2022-11-10T09:37:54.868Z,21.30
2022-11-10T09:40:25.003Z,21.80
2022-11-10T09:42:56.615Z,22.48
2022-11-10T09:45:36.411Z,22.38
2022-11-10T09:48:14.943Z,22.15
2022-11-10T09:50:55.761Z,22.75
2022-11-10T09:53:41.454Z,22.17
2022-11-10T09:56:14.265Z,23.23
2022-11-10T09:58:43.552Z,22.52
2022-11-10T10:01:17.700Z,21.52
2022-11-10T10:03:52.696Z,21.60
2022-11-10T10:06:21.981Z,22.67
2022-11-10T10:09:36.498Z,22.80
2022-11-10T10:12:09.108Z,23.58
2022-11-10T10:14:56.484Z,21.23
2022-11-10T10:17:27.236Z,22.85
2022-11-10T10:20:02.660Z,21.75
2022-11-10T10:23:00.712Z,23.05
2022-11-10T10:25:28.454Z,22.50
2022-11-10T10:28:41.662Z,21.83
2022-11-10T10:31:32.693Z,22.30
2022-11-10T10:33:59.970Z,22.77
2022-11-10T10:36:29.455Z,23.27
2022-11-10T10:39:11.055Z,22.63
2022-11-10T10:41:38.339Z,21.75
2022-11-10T10:44:17.014Z,22.25
2022-11-10T10:46:48.684Z,23.15
2022-11-10T10:49:29.175Z,23.83
2022-11-10T10:52:05.890Z,25.02
2022-11-10T10:57:05.257Z,23.98
2022-11-10T10:59:33.102Z,23.40
2022-11-10T11:02:00.964Z,23.40
2022-11-10T11:04:29.632Z,25.63
2022-11-10T11:06:58.680Z,25.88
2022-11-10T11:09:28.245Z,25.52
2022-11-10T11:12:07.747Z,24.73
2022-11-10T11:14:34.744Z,25.45
2022-11-10T11:17:20.151Z,24.48
2022-11-10T11:19:58.531Z,24.15
2022-11-10T11:22:49.170Z,24.88
2022-11-10T11:25:32.374Z,24.20
2022-11-10T11:28:17.578Z,25.95
2022-11-10T11:30:56.482Z,25.67
2022-11-10T11:33:38.101Z,26.30
2022-11-10T11:36:23.775Z,24.55
2022-11-10T11:38:58.128Z,25.80
2022-11-10T11:41:31.054Z,25.88
2022-11-10T11:44:00.797Z,26.10
2022-11-10T11:46:43.673Z,26.80
2022-11-10T11:49:46.211Z,25.50
2022-11-10T11:52:15.990Z,24.70
2022-11-10T11:54:48.417Z,24.58
2022-11-10T11:57:38.793Z,24.35
2022-11-10T12:00:18.362Z,25.30
2022-11-10T12:02:57.331Z,25.27
2022-11-10T12:05:37.257Z,26.38
2022-11-10T12:08:24.938Z,26.42
2022-11-10T12:11:14.399Z,25.98
2022-11-10T12:13:47.313Z,28.10
2022-11-10T12:16:18.067Z,28.33
2022-11-10T12:18:55.902Z,28.60
2022-11-10T12:21:51.703Z,28.55
2022-11-10T12:24:43.093Z,28.08
2022-11-10T12:27:28.534Z,29.27
2022-11-10T12:30:12.050Z,27.73
2022-11-10T12:33:15.457Z,31.00
2022-11-10T12:35:44.330Z,29.92
2022-11-10T12:38:19.570Z,30.42
2022-11-10T12:40:52.073Z,31.83
2022-11-10T12:43:25.640Z,29.80
2022-11-10T12:45:57.808Z,31.17
2022-11-10T12:48:26.790Z,29.83
2022-11-10T12:51:13.860Z,28.77
2022-11-10T12:53:42.451Z,25.77
2022-11-10T12:56:18.631Z,29.13
2022-11-10T12:58:45.434Z,29.85
2022-11-10T13:01:20.597Z,29.42
2022-11-10T13:04:14.493Z,28.83
2022-11-10T13:06:50.691Z,25.15
2022-11-10T13:09:29.288Z,27.77
2022-11-10T13:12:15.910Z,27.50
2022-11-10T13:14:44.461Z,27.25
2022-11-10T13:17:33.860Z,26.85
2022-11-10T13:20:27.571Z,26.25
2022-11-10T13:22:47.858Z,23.65
2022-11-10T13:25:39.190Z,24.48
2022-11-10T13:28:09.048Z,24.80
2022-11-10T13:30:48.739Z,30.65
2022-11-10T13:34:01.605Z,28.75
2022-11-10T13:36:47.210Z,22.23
2022-11-10T13:39:20.127Z,23.48
2022-11-10T13:42:00.612Z,24.08
2022-11-10T13:44:39.276Z,22.35
2022-11-10T13:47:09.020Z,22.98
2022-11-10T13:49:51.725Z,22.27
2022-11-10T13:52:39.193Z,24.92
2022-11-10T13:55:21.729Z,25.40
2022-11-10T13:58:04.857Z,24.05
2022-11-10T14:00:34.494Z,24.98
2022-11-10T14:03:03.432Z,23.38
2022-11-10T14:05:30.338Z,25.35
2022-11-10T14:08:21.520Z,24.05
2022-11-10T14:10:56.007Z,24.95
2022-11-10T14:13:52.733Z,23.60
2022-11-10T14:16:25.562Z,23.63
2022-11-10T14:19:05.954Z,25.58
2022-11-10T14:21:38.715Z,25.20
2022-11-10T14:24:19.769Z,25.30
2022-11-10T14:26:54.758Z,25.05
2022-11-10T14:29:26.639Z,25.80
2022-11-10T14:31:53.450Z,25.02
2022-11-10T14:34:21.006Z,24.48
2022-11-10T14:36:59.032Z,25.42
2022-11-10T14:39:30.539Z,23.80
2022-11-10T14:41:59.559Z,24.83
2022-11-10T14:44:28.590Z,24.35
2022-11-10T14:46:56.305Z,26.50
2022-11-10T14:49:27.001Z,26.73
2022-11-10T14:51:58.701Z,25.50
2022-11-10T14:54:27.719Z,25.63
2022-11-10T14:56:55.759Z,26.83
2022-11-10T14:59:24.569Z,28.08
2022-11-10T15:01:59.774Z,27.15
2022-11-10T15:04:32.902Z,26.52
2022-11-10T15:07:00.580Z,26.13
2022-11-10T15:09:30.920Z,26.25
2022-11-10T15:12:17.647Z,27.17
2022-11-10T15:14:46.314Z,27.23
2022-11-10T15:17:17.960Z,28.73
2022-11-10T15:19:48.551Z,28.42
2022-11-10T15:22:35.589Z,28.60
2022-11-10T15:25:19.028Z,27.80
2022-11-10T15:28:12.131Z,27.98
2022-11-10T15:30:47.505Z,26.23
2022-11-10T15:33:20.845Z,25.70
2022-11-10T15:35:47.630Z,27.85
2022-11-10T15:38:19.604Z,28.98
2022-11-10T15:40:50.286Z,27.52
2022-11-10T15:43:27.348Z,28.83
2022-11-10T15:46:18.380Z,29.20
2022-11-10T15:48:51.340Z,29.10
2022-11-10T15:51:24.704Z,30.35
2022-11-10T15:53:54.291Z,28.60
2022-11-10T15:56:23.647Z,29.10
2022-11-10T15:58:57.669Z,29.90
2022-11-10T16:01:27.683Z,31.27
2022-11-10T16:03:55.195Z,31.00
2022-11-10T16:06:21.949Z,27.48
2022-11-10T16:08:48.738Z,30.48
2022-11-10T16:11:20.958Z,29.75
2022-11-10T16:13:50.281Z,30.30
2022-11-10T16:16:18.701Z,28.52
2022-11-10T16:18:45.651Z,26.70
2022-11-10T16:21:14.547Z,27.58
2022-11-10T16:23:42.170Z,27.83
2022-11-10T16:26:17.290Z,27.70
2022-11-10T16:28:47.797Z,27.92
2022-11-10T16:31:17.099Z,30.65
2022-11-10T16:33:43.907Z,27.08
2022-11-10T16:36:35.428Z,26.75
2022-11-10T16:39:03.859Z,25.77
2022-11-10T16:41:30.595Z,26.77
2022-11-10T16:43:57.366Z,26.88
2022-11-10T16:46:26.958Z,27.42
2022-11-10T16:48:56.401Z,25.08
2022-11-10T16:51:45.573Z,25.75
2022-11-10T16:54:15.299Z,25.48
2022-11-10T16:56:42.127Z,26.05
2022-11-10T16:59:09.622Z,24.30
2022-11-10T17:01:37.782Z,24.55
2022-11-10T17:04:11.047Z,26.15
2022-11-10T17:06:38.006Z,23.70
2022-11-10T17:09:26.695Z,21.77
2022-11-10T17:11:53.461Z,24.13
2022-11-10T17:14:20.564Z,21.48
2022-11-10T17:16:47.561Z,21.98
2022-11-10T17:19:21.601Z,20.50
2022-11-10T17:21:49.686Z,20.83
2022-11-10T17:24:17.393Z,20.23
2022-11-10T17:26:44.869Z,20.20
2022-11-10T17:29:17.247Z,20.42
2022-11-10T17:31:44.708Z,19.70
2022-11-10T17:34:11.472Z,19.92
2022-11-10T17:36:39.424Z,19.73
2022-11-10T17:39:06.438Z,20.27
2022-11-10T17:41:34.250Z,19.95
2022-11-10T17:44:01.040Z,19.85
2022-11-10T17:46:27.791Z,18.95
2022-11-10T17:49:00.071Z,18.13
2022-11-10T17:51:31.994Z,19.02
2022-11-10T17:54:03.729Z,21.10
2022-11-10T17:56:31.528Z,19.70
2022-11-10T17:58:58.603Z,21.52
2022-11-10T18:01:25.421Z,20.27
2022-11-10T18:03:52.275Z,19.48
2022-11-10T18:06:21.166Z,22.23
2022-11-10T18:08:48.385Z,27.00
2022-11-10T18:11:17.617Z,23.92
2022-11-10T18:13:44.914Z,22.17
2022-11-10T18:16:13.990Z,20.73
2022-11-10T18:18:41.434Z,19.80
2022-11-10T18:21:09.568Z,20.55
2022-11-10T18:23:36.319Z,19.25
2022-11-10T18:26:08.447Z,16.90
2022-11-10T18:28:35.909Z,19.27
2022-11-10T18:31:10.412Z,19.92
2022-11-10T18:33:37.490Z,20.27
2022-11-10T18:36:04.527Z,19.92
2022-11-10T18:38:31.702Z,20.17
2022-11-10T18:41:23.922Z,20.25
2022-11-10T18:43:50.970Z,21.85
2022-11-10T18:46:17.808Z,22.30
2022-11-10T18:48:48.157Z,21.50
2022-11-10T18:51:16.246Z,22.83
2022-11-10T18:53:43.004Z,19.98
2022-11-10T18:56:09.849Z,19.45
2022-11-10T18:58:36.593Z,20.15
2022-11-10T19:01:05.524Z,21.40
2022-11-10T19:03:32.537Z,20.10
2022-11-10T19:05:59.678Z,20.80
2022-11-10T19:08:27.327Z,20.67
2022-11-10T19:10:55.937Z,20.90
2022-11-10T19:13:23.685Z,20.65
2022-11-10T19:15:50.841Z,20.42
2022-11-10T19:18:17.651Z,19.77
2022-11-10T19:20:44.402Z,21.50
2022-11-10T19:23:11.138Z,21.17
2022-11-10T19:25:37.948Z,20.73
2022-11-10T19:28:04.765Z,22.50
2022-11-10T19:30:31.579Z,22.23
2022-11-10T19:32:58.320Z,22.10
2022-11-10T19:35:25.105Z,22.58
2022-11-10T19:37:54.085Z,22.90
2022-11-10T19:40:22.406Z,23.35
2022-11-10T19:42:49.301Z,23.95
2022-11-10T19:45:16.708Z,28.90
2022-11-10T19:47:43.575Z,27.27
2022-11-10T19:50:10.497Z,25.88
2022-11-10T19:52:37.314Z,31.20
2022-11-10T19:55:04.272Z,31.38
2022-11-10T19:57:31.055Z,27.25
2022-11-10T19:59:57.812Z,26.35
2022-11-10T20:02:24.610Z,27.00
2022-11-10T20:05:09.837Z,27.67
2022-11-10T20:07:55.325Z,29.02
2022-11-10T20:10:22.069Z,27.67
2022-11-10T20:12:48.841Z,25.70
2022-11-10T20:15:15.797Z,25.45
2022-11-10T20:17:42.620Z,27.40
2022-11-10T20:20:09.523Z,28.00
2022-11-10T20:22:36.336Z,26.85
2022-11-10T20:25:03.917Z,26.92
2022-11-10T20:27:30.665Z,26.88
2022-11-10T20:29:57.733Z,26.88
2022-11-10T20:32:25.791Z,27.77
2022-11-10T20:34:52.585Z,28.25
2022-11-10T20:37:19.560Z,26.05
2022-11-10T20:39:46.381Z,26.65
2022-11-10T20:42:14.126Z,27.55
2022-11-10T20:44:41.158Z,25.67
2022-11-10T20:47:08.006Z,25.92
2022-11-10T20:49:35.058Z,26.13
2022-11-10T20:52:03.227Z,28.08
2022-11-10T20:54:30.331Z,26.00
2022-11-10T20:56:57.112Z,24.35
2022-11-10T20:59:24.017Z,23.52
2022-11-10T21:01:50.864Z,24.73
2022-11-10T21:04:18.145Z,25.75
2022-11-10T21:06:45.092Z,25.55
2022-11-10T21:09:11.959Z,25.75
2022-11-10T21:11:57.583Z,25.35
2022-11-10T21:14:24.379Z,24.48
2022-11-10T21:16:51.195Z,25.33
2022-11-10T21:19:18.078Z,24.35
2022-11-10T21:21:44.916Z,24.52
2022-11-10T21:24:11.798Z,26.35
2022-11-10T21:26:38.608Z,25.75
2022-11-10T21:29:07.712Z,25.40
2022-11-10T21:31:34.622Z,24.95
2022-11-10T21:34:01.436Z,25.45
2022-11-10T21:36:29.388Z,25.75
2022-11-10T21:38:57.470Z,25.98
2022-11-10T21:41:25.076Z,25.45
2022-11-10T21:43:51.824Z,25.90
2022-11-10T21:46:19.129Z,25.10
2022-11-10T21:48:45.942Z,25.73
2022-11-10T21:51:14.309Z,24.77
2022-11-10T21:53:44.343Z,25.00
2022-11-10T21:56:12.016Z,25.67
2022-11-10T21:58:39.462Z,25.92
2022-11-10T22:01:09.819Z,26.88
2022-11-10T22:03:37.101Z,25.92
2022-11-10T22:06:09.437Z,26.10
2022-11-10T22:08:38.121Z,26.25
2022-11-10T22:11:24.064Z,26.17
2022-11-10T22:14:09.532Z,25.15
2022-11-10T22:17:04.648Z,25.43
2022-11-10T22:19:32.883Z,26.58
2022-11-10T22:22:03.679Z,25.23
2022-11-10T22:24:31.214Z,26.22
2022-11-10T22:26:59.770Z,25.20
2022-11-10T22:29:31.779Z,24.90
2022-11-10T22:32:03.229Z,26.08
2022-11-10T22:34:30.032Z,25.70
2022-11-10T22:36:58.319Z,25.52
2022-11-10T22:39:45.238Z,26.40
2022-11-10T22:42:31.637Z,26.25
2022-11-10T22:47:25.325Z,25.67
2022-11-10T22:49:52.100Z,25.33
2022-11-10T22:52:18.885Z,24.48
2022-11-10T22:54:45.646Z,25.38
2022-11-10T22:57:12.376Z,25.38
2022-11-10T22:59:39.138Z,26.10
2022-11-10T23:02:05.893Z,25.92
2022-11-10T23:04:32.621Z,26.55
2022-11-10T23:06:59.461Z,26.00
2022-11-10T23:09:26.286Z,27.05
2022-11-10T23:11:53.016Z,25.27
2022-11-10T23:14:19.803Z,24.58
2022-11-10T23:16:46.556Z,25.70
2022-11-10T23:19:13.431Z,26.05
2022-11-10T23:21:40.251Z,26.85
2022-11-10T23:24:07.261Z,26.10
2022-11-10T23:26:34.896Z,24.25
2022-11-10T23:29:01.743Z,24.33
2022-11-10T23:31:28.715Z,24.10
2022-11-10T23:33:56.831Z,24.70
2022-11-10T23:36:25.697Z,25.77
2022-11-10T23:38:52.510Z,25.58
2022-11-10T23:41:23.444Z,25.02
2022-11-10T23:43:50.473Z,26.45
2022-11-10T23:46:17.431Z,24.73
2022-11-10T23:48:44.410Z,25.27
2022-11-10T23:51:12.953Z,23.65
2022-11-10T23:53:39.986Z,23.67
2022-11-10T23:56:11.994Z,24.38
2022-11-10T23:58:39.086Z,24.13
